sensor_id;sensor_type;location;lat;lon;timestamp;pressure;altitude;pressure_sealevel;temperature;humidity
76201;BME280;64981;52.930;9.266;2023-03-14T00:01:22;98642.50;;;11.49;70.96
76201;BME280;64981;52.930;9.266;2023-03-14T00:03:49;98649.53;;;11.36;71.23
76201;BME280;64981;52.930;9.266;2023-03-14T00:06:16;98638.28;;;11.41;70.89
76201;BME280;64981;52.930;9.266;2023-03-14T00:08:42;98633.69;;;11.36;72.02
76201;BME280;64981;52.930;9.266;2023-03-14T00:11:13;98637.28;;;11.42;71.44
76201;BME280;64981;52.930;9.266;2023-03-14T00:13:39;98636.47;;;11.42;70.73
76201;BME280;64981;52.930;9.266;2023-03-14T00:16:07;98616.06;;;11.30;70.99
76201;BME280;64981;52.930;9.266;2023-03-14T00:18:33;98619.41;;;11.19;71.08
76201;BME280;64981;52.930;9.266;2023-03-14T00:21:00;98620.00;;;11.21;71.27
76201;BME280;64981;52.930;9.266;2023-03-14T00:23:28;98632.56;;;11.26;71.84
76201;BME280;64981;52.930;9.266;2023-03-14T00:25:59;98637.47;;;10.98;74.02
76201;BME280;64981;52.930;9.266;2023-03-14T00:28:25;98620.66;;;10.67;76.03
76201;BME280;64981;52.930;9.266;2023-03-14T00:30:51;98638.38;;;10.85;75.63
76201;BME280;64981;52.930;9.266;2023-03-14T00:33:16;98616.13;;;10.74;75.04
76201;BME280;64981;52.930;9.266;2023-03-14T00:35:42;98616.44;;;10.84;74.25
76201;BME280;64981;52.930;9.266;2023-03-14T00:38:07;98620.63;;;10.43;75.17
76201;BME280;64981;52.930;9.266;2023-03-14T00:40:33;98621.16;;;10.51;74.62
76201;BME280;64981;52.930;9.266;2023-03-14T00:42:59;98640.03;;;10.55;74.79
76201;BME280;64981;52.930;9.266;2023-03-14T00:45:24;98638.28;;;10.42;74.84
76201;BME280;64981;52.930;9.266;2023-03-14T00:47:50;98610.75;;;10.25;75.90
76201;BME280;64981;52.930;9.266;2023-03-14T00:50:15;98657.44;;;10.18;77.71
76201;BME280;64981;52.930;9.266;2023-03-14T00:52:41;98637.81;;;10.07;77.25
76201;BME280;64981;52.930;9.266;2023-03-14T00:55:07;98648.91;;;10.16;78.38
76201;BME280;64981;52.930;9.266;2023-03-14T00:57:32;98640.41;;;10.20;76.69
76201;BME280;64981;52.930;9.266;2023-03-14T00:59:58;98638.09;;;9.86;78.28
76201;BME280;64981;52.930;9.266;2023-03-14T01:02:23;98630.50;;;9.58;78.80
76201;BME280;64981;52.930;9.266;2023-03-14T01:04:49;98622.31;;;9.79;78.49
76201;BME280;64981;52.930;9.266;2023-03-14T01:07:15;98603.19;;;9.91;78.17
76201;BME280;64981;52.930;9.266;2023-03-14T01:09:41;98606.22;;;9.94;78.04
76201;BME280;64981;52.930;9.266;2023-03-14T01:12:06;98590.00;;;9.91;78.29
76201;BME280;64981;52.930;9.266;2023-03-14T01:14:32;98589.53;;;10.00;77.75
76201;BME280;64981;52.930;9.266;2023-03-14T01:16:57;98566.44;;;10.02;77.74
76201;BME280;64981;52.930;9.266;2023-03-14T01:19:27;98549.91;;;10.13;77.17
76201;BME280;64981;52.930;9.266;2023-03-14T01:21:54;98535.38;;;10.04;77.07
76201;BME280;64981;52.930;9.266;2023-03-14T01:24:20;98562.13;;;10.08;77.05
76201;BME280;64981;52.930;9.266;2023-03-14T01:26:45;98559.38;;;9.96;77.37
76201;BME280;64981;52.930;9.266;2023-03-14T01:29:11;98550.56;;;9.71;77.55
76201;BME280;64981;52.930;9.266;2023-03-14T01:31:37;98573.56;;;9.95;77.23
76201;BME280;64981;52.930;9.266;2023-03-14T01:34:03;98566.34;;;9.77;78.11
76201;BME280;64981;52.930;9.266;2023-03-14T01:36:29;98566.00;;;9.61;78.72
76201;BME280;64981;52.930;9.266;2023-03-14T01:38:54;98572.09;;;9.61;78.93
76201;BME280;64981;52.930;9.266;2023-03-14T01:41:23;98559.31;;;9.65;78.79
76201;BME280;64981;52.930;9.266;2023-03-14T01:43:50;98562.53;;;9.67;78.53
76201;BME280;64981;52.930;9.266;2023-03-14T01:46:25;98550.22;;;9.54;79.38
76201;BME280;64981;52.930;9.266;2023-03-14T01:49:02;98540.66;;;9.60;79.17
76201;BME280;64981;52.930;9.266;2023-03-14T01:51:54;98522.94;;;9.80;78.65
76201;BME280;64981;52.930;9.266;2023-03-14T01:54:30;98524.09;;;9.84;78.57
76201;BME280;64981;52.930;9.266;2023-03-14T01:57:05;98506.41;;;9.60;78.74
76201;BME280;64981;52.930;9.266;2023-03-14T01:59:34;98496.81;;;9.72;78.25
76201;BME280;64981;52.930;9.266;2023-03-14T02:02:02;98507.78;;;10.00;77.03
76201;BME280;64981;52.930;9.266;2023-03-14T02:04:34;98493.97;;;10.05;76.75
76201;BME280;64981;52.930;9.266;2023-03-14T02:07:10;98500.69;;;10.01;77.04
76201;BME280;64981;52.930;9.266;2023-03-14T02:09:39;98511.47;;;9.99;76.48
76201;BME280;64981;52.930;9.266;2023-03-14T02:12:08;98519.66;;;10.22;76.13
76201;BME280;64981;52.930;9.266;2023-03-14T02:14:36;98513.25;;;10.05;75.59
76201;BME280;64981;52.930;9.266;2023-03-14T02:17:05;98521.38;;;10.35;75.10
76201;BME280;64981;52.930;9.266;2023-03-14T02:22:26;98514.84;;;10.06;75.19
76201;BME280;64981;52.930;9.266;2023-03-14T02:27:54;98531.41;;;10.26;74.87
76201;BME280;64981;52.930;9.266;2023-03-14T02:30:22;98528.97;;;10.18;74.76
76201;BME280;64981;52.930;9.266;2023-03-14T02:32:58;98529.38;;;10.22;74.44
76201;BME280;64981;52.930;9.266;2023-03-14T02:35:28;98532.47;;;10.12;75.01
76201;BME280;64981;52.930;9.266;2023-03-14T02:38:03;98536.81;;;10.00;75.04
76201;BME280;64981;52.930;9.266;2023-03-14T02:40:34;98541.25;;;10.00;75.77
76201;BME280;64981;52.930;9.266;2023-03-14T02:42:59;98542.38;;;10.17;74.45
76201;BME280;64981;52.930;9.266;2023-03-14T02:45:35;98533.00;;;9.96;75.12
76201;BME280;64981;52.930;9.266;2023-03-14T02:48:07;98519.50;;;10.11;74.21
76201;BME280;64981;52.930;9.266;2023-03-14T02:50:34;98519.22;;;10.19;74.37
76201;BME280;64981;52.930;9.266;2023-03-14T02:53:00;98519.22;;;10.25;73.88
76201;BME280;64981;52.930;9.266;2023-03-14T02:55:26;98520.03;;;10.26;73.72
76201;BME280;64981;52.930;9.266;2023-03-14T02:57:52;98531.56;;;10.31;73.12
76201;BME280;64981;52.930;9.266;2023-03-14T03:00:19;98519.22;;;10.25;73.15
76201;BME280;64981;52.930;9.266;2023-03-14T03:02:45;98519.47;;;10.49;72.43
76201;BME280;64981;52.930;9.266;2023-03-14T03:05:11;98513.69;;;10.34;72.74
76201;BME280;64981;52.930;9.266;2023-03-14T03:07:36;98509.91;;;10.23;73.06
76201;BME280;64981;52.930;9.266;2023-03-14T03:10:03;98507.13;;;10.43;72.39
76201;BME280;64981;52.930;9.266;2023-03-14T03:12:28;98466.41;;;10.32;72.15
76201;BME280;64981;52.930;9.266;2023-03-14T03:14:54;98478.72;;;10.63;71.81
76201;BME280;64981;52.930;9.266;2023-03-14T03:17:19;98491.34;;;10.36;72.22
76201;BME280;64981;52.930;9.266;2023-03-14T03:19:45;98484.72;;;10.27;72.47
76201;BME280;64981;52.930;9.266;2023-03-14T03:22:11;98489.47;;;10.12;72.97
76201;BME280;64981;52.930;9.266;2023-03-14T03:24:36;98483.78;;;10.15;72.57
76201;BME280;64981;52.930;9.266;2023-03-14T03:27:02;98472.16;;;10.22;72.12
76201;BME280;64981;52.930;9.266;2023-03-14T03:29:28;98484.00;;;10.38;71.54
76201;BME280;64981;52.930;9.266;2023-03-14T03:31:53;98478.06;;;10.18;71.93
76201;BME280;64981;52.930;9.266;2023-03-14T03:34:19;98475.50;;;10.61;71.14
76201;BME280;64981;52.930;9.266;2023-03-14T03:36:45;98476.38;;;10.30;71.84
76201;BME280;64981;52.930;9.266;2023-03-14T03:39:10;98470.28;;;10.29;71.73
76201;BME280;64981;52.930;9.266;2023-03-14T03:41:36;98462.25;;;10.18;72.21
76201;BME280;64981;52.930;9.266;2023-03-14T03:44:01;98463.63;;;10.27;71.97
76201;BME280;64981;52.930;9.266;2023-03-14T03:46:27;98466.31;;;10.14;72.32
76201;BME280;64981;52.930;9.266;2023-03-14T03:48:57;98470.91;;;10.25;72.69
76201;BME280;64981;52.930;9.266;2023-03-14T03:51:23;98464.19;;;10.29;72.74
76201;BME280;64981;52.930;9.266;2023-03-14T03:53:48;98465.38;;;10.33;72.83
76201;BME280;64981;52.930;9.266;2023-03-14T03:56:14;98466.69;;;10.17;73.36
76201;BME280;64981;52.930;9.266;2023-03-14T03:58:39;98455.34;;;10.17;73.22
76201;BME280;64981;52.930;9.266;2023-03-14T04:01:06;98462.06;;;10.13;73.41
76201;BME280;64981;52.930;9.266;2023-03-14T04:03:32;98452.03;;;10.28;73.12
76201;BME280;64981;52.930;9.266;2023-03-14T04:06:01;98468.16;;;10.13;73.42
76201;BME280;64981;52.930;9.266;2023-03-14T04:08:27;98467.56;;;10.11;73.60
76201;BME280;64981;52.930;9.266;2023-03-14T04:10:56;98448.75;;;10.01;74.29
76201;BME280;64981;52.930;9.266;2023-03-14T04:13:23;98460.53;;;10.30;73.42
76201;BME280;64981;52.930;9.266;2023-03-14T04:15:49;98473.34;;;9.95;74.21
76201;BME280;64981;52.930;9.266;2023-03-14T04:18:15;98461.47;;;10.11;73.69
76201;BME280;64981;52.930;9.266;2023-03-14T04:20:40;98470.34;;;10.23;73.47
76201;BME280;64981;52.930;9.266;2023-03-14T04:23:06;98472.69;;;10.00;74.10
76201;BME280;64981;52.930;9.266;2023-03-14T04:25:31;98453.75;;;10.09;73.32
76201;BME280;64981;52.930;9.266;2023-03-14T04:27:57;98476.56;;;9.97;74.02
76201;BME280;64981;52.930;9.266;2023-03-14T04:30:22;98462.47;;;9.85;74.16
76201;BME280;64981;52.930;9.266;2023-03-14T04:32:48;98471.59;;;9.83;74.17
76201;BME280;64981;52.930;9.266;2023-03-14T04:35:14;98461.59;;;9.60;74.65
76201;BME280;64981;52.930;9.266;2023-03-14T04:37:39;98458.25;;;9.77;74.42
76201;BME280;64981;52.930;9.266;2023-03-14T04:40:07;98466.63;;;9.68;74.86
76201;BME280;64981;52.930;9.266;2023-03-14T04:42:33;98467.66;;;9.98;73.98
76201;BME280;64981;52.930;9.266;2023-03-14T04:44:59;98451.41;;;9.70;74.73
76201;BME280;64981;52.930;9.266;2023-03-14T04:47:25;98454.53;;;9.54;74.95
76201;BME280;64981;52.930;9.266;2023-03-14T04:49:51;98455.53;;;9.53;74.84
76201;BME280;64981;52.930;9.266;2023-03-14T04:52:17;98447.22;;;9.56;74.93
76201;BME280;64981;52.930;9.266;2023-03-14T04:54:42;98424.38;;;9.43;74.61
76201;BME280;64981;52.930;9.266;2023-03-14T04:57:08;98440.22;;;9.74;74.18
76201;BME280;64981;52.930;9.266;2023-03-14T04:59:34;98446.56;;;9.67;74.30
76201;BME280;64981;52.930;9.266;2023-03-14T05:01:59;98437.03;;;9.66;74.32
76201;BME280;64981;52.930;9.266;2023-03-14T05:04:25;98434.72;;;9.45;74.72
76201;BME280;64981;52.930;9.266;2023-03-14T05:06:50;98439.78;;;9.46;75.18
76201;BME280;64981;52.930;9.266;2023-03-14T05:09:17;98432.13;;;9.38;74.85
76201;BME280;64981;52.930;9.266;2023-03-14T05:11:42;98438.34;;;9.50;74.38
76201;BME280;64981;52.930;9.266;2023-03-14T05:14:08;98432.38;;;9.30;75.11
76201;BME280;64981;52.930;9.266;2023-03-14T05:16:33;98432.09;;;9.45;74.19
76201;BME280;64981;52.930;9.266;2023-03-14T05:18:59;98433.25;;;9.55;73.82
76201;BME280;64981;52.930;9.266;2023-03-14T05:21:27;98423.44;;;9.24;74.86
76201;BME280;64981;52.930;9.266;2023-03-14T05:23:52;98423.84;;;9.28;74.68
76201;BME280;64981;52.930;9.266;2023-03-14T05:26:18;98429.97;;;9.15;74.70
76201;BME280;64981;52.930;9.266;2023-03-14T05:28:43;98439.69;;;9.21;74.79
76201;BME280;64981;52.930;9.266;2023-03-14T05:31:09;98433.66;;;9.14;75.10
76201;BME280;64981;52.930;9.266;2023-03-14T05:33:35;98437.84;;;9.22;75.12
76201;BME280;64981;52.930;9.266;2023-03-14T05:36:01;98435.91;;;9.04;75.47
76201;BME280;64981;52.930;9.266;2023-03-14T05:38:26;98439.69;;;9.21;75.81
76201;BME280;64981;52.930;9.266;2023-03-14T05:40:52;98428.38;;;9.21;75.54
76201;BME280;64981;52.930;9.266;2023-03-14T05:43:17;98427.13;;;9.23;75.39
76201;BME280;64981;52.930;9.266;2023-03-14T05:45:43;98429.53;;;9.25;75.15
76201;BME280;64981;52.930;9.266;2023-03-14T05:48:09;98428.91;;;9.30;74.97
76201;BME280;64981;52.930;9.266;2023-03-14T05:50:35;98427.72;;;9.25;75.16
76201;BME280;64981;52.930;9.266;2023-03-14T05:53:01;98427.13;;;9.23;75.54
76201;BME280;64981;52.930;9.266;2023-03-14T05:55:27;98444.72;;;9.30;75.83
76201;BME280;64981;52.930;9.266;2023-03-14T05:57:53;98447.00;;;9.19;76.87
76201;BME280;64981;52.930;9.266;2023-03-14T06:00:20;98430.81;;;9.09;78.39
76201;BME280;64981;52.930;9.266;2023-03-14T06:02:45;98420.50;;;9.08;78.72
76201;BME280;64981;52.930;9.266;2023-03-14T06:05:11;98424.63;;;8.84;79.50
76201;BME280;64981;52.930;9.266;2023-03-14T06:07:37;98437.16;;;8.95;79.23
76201;BME280;64981;52.930;9.266;2023-03-14T06:10:03;98443.84;;;8.98;79.22
76201;BME280;64981;52.930;9.266;2023-03-14T06:12:28;98444.84;;;8.97;79.33
76201;BME280;64981;52.930;9.266;2023-03-14T06:14:54;98450.09;;;9.03;79.22
76201;BME280;64981;52.930;9.266;2023-03-14T06:17:20;98455.91;;;9.12;78.69
76201;BME280;64981;52.930;9.266;2023-03-14T06:19:45;98441.84;;;8.87;79.84
76201;BME280;64981;52.930;9.266;2023-03-14T06:22:11;98445.47;;;8.92;79.52
76201;BME280;64981;52.930;9.266;2023-03-14T06:24:36;98443.22;;;9.02;78.80
76201;BME280;64981;52.930;9.266;2023-03-14T06:27:02;98445.91;;;8.83;79.19
76201;BME280;64981;52.930;9.266;2023-03-14T06:29:29;98436.00;;;8.71;79.45
76201;BME280;64981;52.930;9.266;2023-03-14T06:31:56;98433.13;;;8.93;78.79
76201;BME280;64981;52.930;9.266;2023-03-14T06:34:21;98429.28;;;8.89;78.56
76201;BME280;64981;52.930;9.266;2023-03-14T06:36:47;98441.84;;;8.87;78.64
76201;BME280;64981;52.930;9.266;2023-03-14T06:39:13;98442.69;;;8.74;79.05
76201;BME280;64981;52.930;9.266;2023-03-14T06:41:38;98435.78;;;8.60;79.28
76201;BME280;64981;52.930;9.266;2023-03-14T06:44:04;98452.00;;;8.57;79.41
76201;BME280;64981;52.930;9.266;2023-03-14T06:46:30;98444.66;;;8.98;77.71
76201;BME280;64981;52.930;9.266;2023-03-14T06:48:56;98442.28;;;8.77;78.76
76201;BME280;64981;52.930;9.266;2023-03-14T06:51:22;98450.94;;;8.91;78.41
76201;BME280;64981;52.930;9.266;2023-03-14T06:53:47;98453.13;;;9.07;77.92
76201;BME280;64981;52.930;9.266;2023-03-14T06:56:13;98447.47;;;8.97;78.18
76201;BME280;64981;52.930;9.266;2023-03-14T06:58:39;98452.16;;;8.88;78.62
76201;BME280;64981;52.930;9.266;2023-03-14T07:01:05;98452.97;;;8.95;77.79
76201;BME280;64981;52.930;9.266;2023-03-14T07:03:31;98454.94;;;9.06;77.82
76201;BME280;64981;52.930;9.266;2023-03-14T07:05:57;98449.44;;;9.14;77.38
76201;BME280;64981;52.930;9.266;2023-03-14T07:08:22;98451.53;;;9.44;76.05
76201;BME280;64981;52.930;9.266;2023-03-14T07:10:48;98451.00;;;9.29;76.38
76201;BME280;64981;52.930;9.266;2023-03-14T07:13:13;98455.44;;;9.35;76.84
76201;BME280;64981;52.930;9.266;2023-03-14T07:15:39;98454.38;;;9.49;75.93
76201;BME280;64981;52.930;9.266;2023-03-14T07:18:05;98451.34;;;9.45;75.59
76201;BME280;64981;52.930;9.266;2023-03-14T07:20:30;98457.84;;;9.43;76.06
76201;BME280;64981;52.930;9.266;2023-03-14T07:22:57;98462.81;;;9.95;74.81
76201;BME280;64981;52.930;9.266;2023-03-14T07:25:25;98462.00;;;9.95;74.36
76201;BME280;64981;52.930;9.266;2023-03-14T07:27:50;98464.94;;;10.11;74.29
76201;BME280;64981;52.930;9.266;2023-03-14T07:30:16;98467.41;;;10.00;73.38
76201;BME280;64981;52.930;9.266;2023-03-14T07:32:42;98469.72;;;9.96;74.05
76201;BME280;64981;52.930;9.266;2023-03-14T07:35:08;98471.97;;;10.17;73.06
76201;BME280;64981;52.930;9.266;2023-03-14T07:37:34;98467.13;;;10.21;72.91
76201;BME280;64981;52.930;9.266;2023-03-14T07:39:59;98462.66;;;10.21;73.28
76201;BME280;64981;52.930;9.266;2023-03-14T07:42:25;98464.97;;;10.36;72.77
76201;BME280;64981;52.930;9.266;2023-03-14T07:44:51;98465.44;;;10.26;72.42
76201;BME280;64981;52.930;9.266;2023-03-14T07:47:16;98461.50;;;10.36;72.84
76201;BME280;64981;52.930;9.266;2023-03-14T07:49:42;98458.06;;;10.35;71.93
76201;BME280;64981;52.930;9.266;2023-03-14T07:52:07;98462.78;;;10.51;71.87
76201;BME280;64981;52.930;9.266;2023-03-14T07:54:33;98453.00;;;10.34;71.52
76201;BME280;64981;52.930;9.266;2023-03-14T07:56:58;98453.44;;;10.55;71.13
76201;BME280;64981;52.930;9.266;2023-03-14T07:59:26;98469.47;;;10.54;70.83
76201;BME280;64981;52.930;9.266;2023-03-14T08:01:52;98466.44;;;10.93;69.39
76201;BME280;64981;52.930;9.266;2023-03-14T08:04:18;98454.41;;;11.33;68.72
76201;BME280;64981;52.930;9.266;2023-03-14T08:06:43;98455.88;;;11.77;66.73
76201;BME280;64981;52.930;9.266;2023-03-14T08:09:09;98462.09;;;12.36;65.61
76201;BME280;64981;52.930;9.266;2023-03-14T08:11:35;98456.59;;;12.95;62.32
76201;BME280;64981;52.930;9.266;2023-03-14T08:14:00;98460.41;;;13.68;60.46
76201;BME280;64981;52.930;9.266;2023-03-14T08:16:26;98464.44;;;13.98;59.02
76201;BME280;64981;52.930;9.266;2023-03-14T08:18:51;98472.44;;;14.15;57.88
76201;BME280;64981;52.930;9.266;2023-03-14T08:21:17;98478.44;;;14.11;58.32
76201;BME280;64981;52.930;9.266;2023-03-14T08:23:43;98469.97;;;14.25;58.41
76201;BME280;64981;52.930;9.266;2023-03-14T08:26:08;98470.69;;;13.92;58.95
76201;BME280;64981;52.930;9.266;2023-03-14T08:28:34;98472.13;;;13.55;60.20
76201;BME280;64981;52.930;9.266;2023-03-14T08:31:00;98466.34;;;13.07;60.16
76201;BME280;64981;52.930;9.266;2023-03-14T08:33:28;98457.75;;;13.00;60.76
76201;BME280;64981;52.930;9.266;2023-03-14T08:35:56;98455.09;;;13.00;60.98
76201;BME280;64981;52.930;9.266;2023-03-14T08:38:22;98452.38;;;13.23;60.77
76201;BME280;64981;52.930;9.266;2023-03-14T08:40:47;98461.31;;;12.93;61.30
76201;BME280;64981;52.930;9.266;2023-03-14T08:43:13;98456.59;;;12.49;62.28
76201;BME280;64981;52.930;9.266;2023-03-14T08:45:38;98453.00;;;12.55;62.37
76201;BME280;64981;52.930;9.266;2023-03-14T08:48:04;98454.41;;;12.46;62.42
76201;BME280;64981;52.930;9.266;2023-03-14T08:50:30;98460.72;;;12.45;62.70
76201;BME280;64981;52.930;9.266;2023-03-14T08:52:55;98459.69;;;12.34;62.97
76201;BME280;64981;52.930;9.266;2023-03-14T08:55:26;98452.41;;;12.41;63.05
76201;BME280;64981;52.930;9.266;2023-03-14T08:57:53;98463.47;;;12.38;63.45
76201;BME280;64981;52.930;9.266;2023-03-14T09:00:19;98462.16;;;12.06;63.81
76201;BME280;64981;52.930;9.266;2023-03-14T09:02:45;98457.44;;;11.97;63.82
76201;BME280;64981;52.930;9.266;2023-03-14T09:05:11;98461.28;;;11.82;64.87
76201;BME280;64981;52.930;9.266;2023-03-14T09:07:38;98458.44;;;11.36;65.94
76201;BME280;64981;52.930;9.266;2023-03-14T09:10:06;98452.72;;;11.69;65.71
76201;BME280;64981;52.930;9.266;2023-03-14T09:12:33;98466.06;;;11.62;66.43
76201;BME280;64981;52.930;9.266;2023-03-14T09:14:59;98466.78;;;11.33;67.18
76201;BME280;64981;52.930;9.266;2023-03-14T09:17:24;98467.28;;;11.60;67.50
76201;BME280;64981;52.930;9.266;2023-03-14T09:19:50;98477.28;;;11.39;69.68
76201;BME280;64981;52.930;9.266;2023-03-14T09:22:15;98486.38;;;11.25;70.51
76201;BME280;64981;52.930;9.266;2023-03-14T09:24:41;98505.13;;;11.24;72.07
76201;BME280;64981;52.930;9.266;2023-03-14T09:27:07;98502.94;;;11.21;73.89
76201;BME280;64981;52.930;9.266;2023-03-14T09:29:33;98499.03;;;11.23;73.37
76201;BME280;64981;52.930;9.266;2023-03-14T09:31:59;98496.03;;;11.02;74.01
76201;BME280;64981;52.930;9.266;2023-03-14T09:34:26;98502.25;;;10.89;75.38
76201;BME280;64981;52.930;9.266;2023-03-14T09:36:51;98510.53;;;10.93;74.78
76201;BME280;64981;52.930;9.266;2023-03-14T09:39:17;98514.75;;;10.75;75.63
76201;BME280;64981;52.930;9.266;2023-03-14T09:41:46;98511.59;;;10.67;75.72
76201;BME280;64981;52.930;9.266;2023-03-14T09:44:28;98509.28;;;10.52;76.55
76201;BME280;64981;52.930;9.266;2023-03-14T09:47:00;98512.53;;;10.72;76.22
76201;BME280;64981;52.930;9.266;2023-03-14T09:49:31;98513.75;;;10.76;76.44
76201;BME280;64981;52.930;9.266;2023-03-14T09:52:00;98519.31;;;10.68;76.79
76201;BME280;64981;52.930;9.266;2023-03-14T09:54:43;98527.09;;;10.81;76.15
76201;BME280;64981;52.930;9.266;2023-03-14T09:57:17;98510.63;;;10.61;76.16
76201;BME280;64981;52.930;9.266;2023-03-14T09:59:46;98545.84;;;10.17;76.78
76201;BME280;64981;52.930;9.266;2023-03-14T10:02:18;98585.22;;;10.12;72.55
76201;BME280;64981;52.930;9.266;2023-03-14T10:04:47;98618.47;;;9.75;69.39
76201;BME280;64981;52.930;9.266;2023-03-14T10:07:16;98613.22;;;9.69;70.56
76201;BME280;64981;52.930;9.266;2023-03-14T10:09:48;98623.28;;;9.14;70.95
76201;BME280;64981;52.930;9.266;2023-03-14T10:12:15;98646.97;;;8.88;72.17
76201;BME280;64981;52.930;9.266;2023-03-14T10:14:50;98646.13;;;8.75;72.05
76201;BME280;64981;52.930;9.266;2023-03-14T10:17:18;98660.34;;;9.00;70.29
76201;BME280;64981;52.930;9.266;2023-03-14T10:19:55;98669.84;;;8.81;70.52
76201;BME280;64981;52.930;9.266;2023-03-14T10:22:24;98674.44;;;8.59;71.50
76201;BME280;64981;52.930;9.266;2023-03-14T10:24:53;98667.47;;;8.26;71.82
76201;BME280;64981;52.930;9.266;2023-03-14T10:27:23;98685.09;;;8.32;72.63
76201;BME280;64981;52.930;9.266;2023-03-14T10:29:56;98689.13;;;8.28;71.95
76201;BME280;64981;52.930;9.266;2023-03-14T10:32:31;98711.38;;;8.32;72.12
76201;BME280;64981;52.930;9.266;2023-03-14T10:35:17;98723.63;;;8.05;71.87
76201;BME280;64981;52.930;9.266;2023-03-14T10:37:55;98741.59;;;7.67;70.87
76201;BME280;64981;52.930;9.266;2023-03-14T10:40:28;98744.63;;;7.64;70.47
76201;BME280;64981;52.930;9.266;2023-03-14T10:42:55;98766.28;;;7.45;70.84
76201;BME280;64981;52.930;9.266;2023-03-14T10:45:35;98779.53;;;7.58;70.13
76201;BME280;64981;52.930;9.266;2023-03-14T10:48:23;98789.97;;;7.30;70.04
76201;BME280;64981;52.930;9.266;2023-03-14T10:51:03;98806.50;;;7.03;68.91
76201;BME280;64981;52.930;9.266;2023-03-14T10:53:34;98813.72;;;6.80;70.14
76201;BME280;64981;52.930;9.266;2023-03-14T10:56:04;98819.31;;;6.77;70.86
76201;BME280;64981;52.930;9.266;2023-03-14T10:58:35;98841.31;;;6.61;71.03
76201;BME280;64981;52.930;9.266;2023-03-14T11:01:26;98851.88;;;6.24;71.52
76201;BME280;64981;52.930;9.266;2023-03-14T11:04:00;98881.31;;;5.96;71.28
76201;BME280;64981;52.930;9.266;2023-03-14T11:06:44;98896.28;;;6.11;71.08
76201;BME280;64981;52.930;9.266;2023-03-14T11:09:25;98909.78;;;5.99;70.73
76201;BME280;64981;52.930;9.266;2023-03-14T11:12:04;98919.22;;;6.09;70.90
76201;BME280;64981;52.930;9.266;2023-03-14T11:14:43;98917.09;;;5.89;71.05
76201;BME280;64981;52.930;9.266;2023-03-14T11:17:38;98922.72;;;6.01;71.81
76201;BME280;64981;52.930;9.266;2023-03-14T11:20:32;98935.22;;;5.76;72.52
76201;BME280;64981;52.930;9.266;2023-03-14T11:23:18;98946.22;;;5.72;71.88
76201;BME280;64981;52.930;9.266;2023-03-14T11:26:18;98944.56;;;5.71;71.56
76201;BME280;64981;52.930;9.266;2023-03-14T11:28:47;98955.94;;;5.63;72.16
76201;BME280;64981;52.930;9.266;2023-03-14T11:31:32;98972.69;;;5.77;72.23
76201;BME280;64981;52.930;9.266;2023-03-14T11:34:33;98971.53;;;5.79;72.38
76201;BME280;64981;52.930;9.266;2023-03-14T11:37:04;98978.41;;;5.80;72.30
76201;BME280;64981;52.930;9.266;2023-03-14T11:39:39;98993.41;;;5.86;71.65
76201;BME280;64981;52.930;9.266;2023-03-14T11:42:12;98995.06;;;5.87;71.49
76201;BME280;64981;52.930;9.266;2023-03-14T11:44:45;98989.19;;;5.85;70.35
76201;BME280;64981;52.930;9.266;2023-03-14T11:47:34;99029.88;;;5.73;71.08
76201;BME280;64981;52.930;9.266;2023-03-14T11:50:23;99024.72;;;5.57;71.04
76201;BME280;64981;52.930;9.266;2023-03-14T11:52:56;99022.03;;;5.65;71.45
76201;BME280;64981;52.930;9.266;2023-03-14T11:55:32;99043.13;;;5.72;70.57
76201;BME280;64981;52.930;9.266;2023-03-14T11:58:03;99045.59;;;5.73;70.65
76201;BME280;64981;52.930;9.266;2023-03-14T12:00:30;99053.44;;;5.73;71.33
76201;BME280;64981;52.930;9.266;2023-03-14T12:03:21;99058.91;;;5.86;71.78
76201;BME280;64981;52.930;9.266;2023-03-14T12:06:31;99075.84;;;5.76;71.68
76201;BME280;64981;52.930;9.266;2023-03-14T12:09:03;99085.78;;;5.88;72.11
76201;BME280;64981;52.930;9.266;2023-03-14T12:11:45;99088.00;;;5.99;71.26
76201;BME280;64981;52.930;9.266;2023-03-14T12:14:32;99105.38;;;6.00;71.53
76201;BME280;64981;52.930;9.266;2023-03-14T12:17:05;99101.28;;;6.21;71.89
76201;BME280;64981;52.930;9.266;2023-03-14T12:19:35;99099.03;;;6.40;70.75
76201;BME280;64981;52.930;9.266;2023-03-14T12:22:13;99112.59;;;6.44;71.10
76201;BME280;64981;52.930;9.266;2023-03-14T12:24:49;99125.25;;;6.63;69.52
76201;BME280;64981;52.930;9.266;2023-03-14T12:27:41;99138.13;;;6.50;68.76
76201;BME280;64981;52.930;9.266;2023-03-14T12:30:37;99158.78;;;6.53;69.76
76201;BME280;64981;52.930;9.266;2023-03-14T12:33:33;99157.38;;;6.65;68.98
76201;BME280;64981;52.930;9.266;2023-03-14T12:36:00;99167.00;;;6.95;68.29
76201;BME280;64981;52.930;9.266;2023-03-14T12:41:43;99147.94;;;6.79;66.93
76201;BME280;64981;52.930;9.266;2023-03-14T12:50:18;99179.72;;;7.21;66.49
76201;BME280;64981;52.930;9.266;2023-03-14T12:53:05;99180.84;;;7.27;65.42
76201;BME280;64981;52.930;9.266;2023-03-14T12:55:47;99188.84;;;7.48;65.48
76201;BME280;64981;52.930;9.266;2023-03-14T12:58:35;99193.81;;;7.57;64.77
76201;BME280;64981;52.930;9.266;2023-03-14T13:01:05;99213.84;;;7.73;64.75
76201;BME280;64981;52.930;9.266;2023-03-14T13:03:48;99222.81;;;7.64;63.84
76201;BME280;64981;52.930;9.266;2023-03-14T13:06:52;99239.34;;;7.35;65.56
76201;BME280;64981;52.930;9.266;2023-03-14T13:09:35;99256.22;;;7.18;64.79
76201;BME280;64981;52.930;9.266;2023-03-14T13:12:18;99250.47;;;7.23;64.24
76201;BME280;64981;52.930;9.266;2023-03-14T13:14:49;99266.22;;;7.00;64.05
76201;BME280;64981;52.930;9.266;2023-03-14T13:17:30;99267.75;;;7.17;64.86
76201;BME280;64981;52.930;9.266;2023-03-14T13:20:01;99260.59;;;7.26;61.32
76201;BME280;64981;52.930;9.266;2023-03-14T13:22:33;99283.63;;;7.24;59.14
76201;BME280;64981;52.930;9.266;2023-03-14T13:25:03;99296.41;;;7.27;56.82
76201;BME280;64981;52.930;9.266;2023-03-14T13:27:33;99302.16;;;7.22;55.05
76201;BME280;64981;52.930;9.266;2023-03-14T13:30:05;99312.91;;;7.35;54.96
76201;BME280;64981;52.930;9.266;2023-03-14T13:32:31;99336.28;;;7.22;55.30